Webcam Flughafen St.Gallen-Altenrhein

Live-Bilder und Zeitraffer LSZR / ACH.

 

Live aus Altenrhein
LIVE
LSZR 171350Z 29018G28KT 250V310 9999 VCSH BKN040 12/07 Q1019 NOSIG RMK I
Zeitraffer heute
2020-02-17 00:14:51
LSZR 162250Z AUTO 28008KT 9999 NSC 06/04 Q1017